createdAt,value
2022-10-31T00:00:49.356Z,83.49
2022-10-31T00:03:17.824Z,83.56
2022-10-31T00:05:47.500Z,83.39
2022-10-31T00:08:17.171Z,82.71
2022-10-31T00:10:46.475Z,82.56
2022-10-31T00:13:16.009Z,82.61
2022-10-31T00:15:44.065Z,82.48
2022-10-31T00:18:12.502Z,82.63
2022-10-31T00:20:41.165Z,82.83
2022-10-31T00:23:09.567Z,83.48
2022-10-31T00:25:40.246Z,83.77
2022-10-31T00:28:09.679Z,83.87
2022-10-31T00:30:37.749Z,84.33
2022-10-31T00:33:06.222Z,84.02
2022-10-31T00:35:34.696Z,84.50
2022-10-31T00:38:02.716Z,84.14
2022-10-31T00:40:30.767Z,83.95
2022-10-31T00:43:00.265Z,84.11
2022-10-31T00:45:28.502Z,83.94
2022-10-31T00:47:56.667Z,84.00
2022-10-31T00:50:24.822Z,83.60
2022-10-31T00:52:53.021Z,83.76
2022-10-31T00:55:21.099Z,83.93
2022-10-31T00:57:49.287Z,84.30
2022-10-31T01:00:19.174Z,83.97
2022-10-31T01:02:47.835Z,83.77
2022-10-31T01:05:16.348Z,83.52
2022-10-31T01:07:46.122Z,83.76
2022-10-31T01:10:14.143Z,83.40
2022-10-31T01:12:43.515Z,83.57
2022-10-31T01:15:13.252Z,83.72
2022-10-31T01:17:42.732Z,83.89
2022-10-31T01:20:14.609Z,83.61
2022-10-31T01:22:42.798Z,83.11
2022-10-31T01:25:11.666Z,83.28
2022-10-31T01:27:39.633Z,83.88
2022-10-31T01:30:09.793Z,83.41
2022-10-31T01:32:37.775Z,83.76
2022-10-31T01:35:07.635Z,83.64
2022-10-31T01:37:35.716Z,84.04
2022-10-31T01:40:03.926Z,84.27
2022-10-31T01:42:32.052Z,84.04
2022-10-31T01:45:01.818Z,83.73
2022-10-31T01:47:36.154Z,83.98
2022-10-31T01:50:08.822Z,84.02
2022-10-31T01:52:39.744Z,83.99
2022-10-31T01:55:14.366Z,84.14
2022-10-31T01:57:43.980Z,83.99
2022-10-31T02:00:13.519Z,84.09
2022-10-31T02:02:42.285Z,84.59
2022-10-31T02:05:15.262Z,84.34
2022-10-31T02:07:46.643Z,84.62
2022-10-31T02:10:14.940Z,84.10
2022-10-31T02:12:43.318Z,84.18
2022-10-31T02:15:12.166Z,83.89
2022-10-31T02:17:41.614Z,83.69
2022-10-31T02:20:17.812Z,83.88
2022-10-31T02:23:04.451Z,83.57
2022-10-31T02:25:54.007Z,83.57
2022-10-31T02:28:36.950Z,84.42
2022-10-31T02:31:19.395Z,84.73
2022-10-31T02:33:51.577Z,84.80
2022-10-31T02:36:47.854Z,84.16
2022-10-31T02:39:21.276Z,83.64
2022-10-31T02:41:59.468Z,83.70
2022-10-31T02:44:31.636Z,83.76
2022-10-31T02:47:03.627Z,84.42
2022-10-31T02:49:36.174Z,85.11
2022-10-31T02:52:04.143Z,84.80
2022-10-31T02:54:33.322Z,84.35
2022-10-31T02:57:04.404Z,83.76
2022-10-31T02:59:33.563Z,83.97
2022-10-31T03:02:31.773Z,83.37
2022-10-31T03:05:24.954Z,83.51
2022-10-31T03:07:59.395Z,84.09
2022-10-31T03:10:33.801Z,84.81
2022-10-31T03:13:05.546Z,85.26
2022-10-31T03:15:35.999Z,85.13
2022-10-31T03:18:07.986Z,85.27
2022-10-31T03:20:40.330Z,85.31
2022-10-31T03:23:12.770Z,85.29
2022-10-31T03:25:41.800Z,85.19
2022-10-31T03:28:11.726Z,85.30
2022-10-31T03:30:42.990Z,85.52
2022-10-31T03:33:15.211Z,86.48
2022-10-31T03:35:45.173Z,86.19
2022-10-31T03:38:13.934Z,85.55
2022-10-31T03:40:43.183Z,85.54
2022-10-31T03:43:15.259Z,85.31
2022-10-31T03:45:47.100Z,85.59
2022-10-31T03:48:18.355Z,85.30
2022-10-31T03:50:52.741Z,85.21
2022-10-31T03:53:25.262Z,84.75
2022-10-31T03:55:55.727Z,85.02
2022-10-31T03:58:27.552Z,84.90
2022-10-31T04:00:56.855Z,85.64
2022-10-31T04:03:27.781Z,85.42
2022-10-31T04:06:00.864Z,85.71
2022-10-31T04:08:35.753Z,86.77
2022-10-31T04:11:05.285Z,86.50
2022-10-31T04:13:35.925Z,86.47
2022-10-31T04:16:12.681Z,86.47
2022-10-31T04:18:45.704Z,86.04
2022-10-31T04:21:13.806Z,86.28
2022-10-31T04:23:41.838Z,85.60
2022-10-31T04:26:17.243Z,85.51
2022-10-31T04:28:45.690Z,85.66
2022-10-31T04:31:17.175Z,85.66
2022-10-31T04:33:48.470Z,85.95
2022-10-31T04:36:16.542Z,85.57
2022-10-31T04:38:44.588Z,85.50
2022-10-31T04:41:25.811Z,85.06
2022-10-31T04:44:02.523Z,85.40
2022-10-31T04:46:30.944Z,84.98
2022-10-31T04:49:01.496Z,85.16
2022-10-31T04:51:29.508Z,85.91
2022-10-31T04:53:57.872Z,85.03
2022-10-31T04:56:28.919Z,85.25
2022-10-31T04:59:02.372Z,85.27
2022-10-31T05:01:39.940Z,85.10
2022-10-31T05:04:09.429Z,84.80
2022-10-31T05:06:37.891Z,84.79
2022-10-31T05:09:06.219Z,85.41
2022-10-31T05:11:34.262Z,85.38
2022-10-31T05:14:14.595Z,85.72
2022-10-31T05:17:20.850Z,84.92
2022-10-31T05:20:20.995Z,85.57
2022-10-31T05:23:07.608Z,85.69
2022-10-31T05:25:35.592Z,85.60
2022-10-31T05:28:06.022Z,85.35
2022-10-31T05:30:35.517Z,85.64
2022-10-31T05:33:05.048Z,85.90
2022-10-31T05:35:52.823Z,85.83
2022-10-31T05:38:26.861Z,85.12
2022-10-31T05:40:58.591Z,84.59
2022-10-31T05:43:27.218Z,85.06
2022-10-31T05:45:55.834Z,85.30
2022-10-31T05:48:43.762Z,84.94
2022-10-31T05:51:35.719Z,85.33
2022-10-31T05:54:05.345Z,84.61
2022-10-31T05:56:33.414Z,84.50
2022-10-31T05:59:01.963Z,84.96
2022-10-31T06:01:30.070Z,85.31
2022-10-31T06:04:01.035Z,85.29
2022-10-31T06:06:29.099Z,84.57
2022-10-31T06:08:58.576Z,84.80
2022-10-31T06:11:27.605Z,85.00
2022-10-31T06:14:04.846Z,84.65
2022-10-31T06:16:44.166Z,85.59
2022-10-31T06:19:32.700Z,84.85
2022-10-31T06:22:01.074Z,84.96
2022-10-31T06:24:31.528Z,84.55
2022-10-31T06:27:22.658Z,85.34
2022-10-31T06:29:50.665Z,85.64
2022-10-31T06:32:33.149Z,85.77
2022-10-31T06:35:01.120Z,85.31
2022-10-31T06:37:29.193Z,86.20
2022-10-31T06:40:06.217Z,85.62
2022-10-31T06:42:47.360Z,85.92
2022-10-31T06:45:15.632Z,85.68
2022-10-31T06:48:16.490Z,86.02
2022-10-31T06:51:04.958Z,86.74
2022-10-31T06:53:33.994Z,87.45
2022-10-31T06:56:04.330Z,86.69
2022-10-31T06:58:37.555Z,87.04
2022-10-31T07:01:10.682Z,87.04
2022-10-31T07:03:38.781Z,87.40
2022-10-31T07:06:07.402Z,87.72
2022-10-31T07:08:35.450Z,87.57
2022-10-31T07:11:04.940Z,86.88
2022-10-31T07:13:33.768Z,86.79
2022-10-31T07:16:09.011Z,86.82
2022-10-31T07:18:38.176Z,86.85
2022-10-31T07:21:07.012Z,86.78
2022-10-31T07:23:35.161Z,87.94
2022-10-31T07:26:39.736Z,87.28
2022-10-31T07:29:07.822Z,88.22
2022-10-31T07:31:35.856Z,88.30
2022-10-31T07:34:10.928Z,88.12
2022-10-31T07:36:38.876Z,87.71
2022-10-31T07:39:07.284Z,88.02
2022-10-31T07:41:36.863Z,87.60
2022-10-31T07:44:06.545Z,88.17
2022-10-31T07:46:52.907Z,88.42
2022-10-31T07:49:59.242Z,88.28
2022-10-31T07:52:45.959Z,88.47
2022-10-31T07:55:46.286Z,88.23
2022-10-31T07:58:16.401Z,87.80
2022-10-31T08:00:47.358Z,87.95
2022-10-31T08:03:20.845Z,88.14
2022-10-31T08:06:08.130Z,88.00
2022-10-31T08:08:54.548Z,88.74
2022-10-31T08:11:24.111Z,88.17
2022-10-31T08:13:52.129Z,87.94
2022-10-31T08:16:22.178Z,87.83
2022-10-31T08:18:57.886Z,88.33
2022-10-31T08:21:25.896Z,88.07
2022-10-31T08:23:53.867Z,87.77
2022-10-31T08:26:25.014Z,88.76
2022-10-31T08:28:56.615Z,88.27
2022-10-31T08:31:33.496Z,88.51
2022-10-31T08:34:21.187Z,88.60
2022-10-31T08:37:07.828Z,88.66
2022-10-31T08:39:41.681Z,87.99
2022-10-31T08:42:09.714Z,88.29
2022-10-31T08:44:37.742Z,88.22
2022-10-31T08:47:07.333Z,88.04
2022-10-31T08:49:36.263Z,88.31
2022-10-31T08:52:04.740Z,88.06
2022-10-31T08:54:37.640Z,88.12
2022-10-31T08:57:25.597Z,88.21
2022-10-31T08:59:54.665Z,88.11
2022-10-31T09:02:43.135Z,87.93
2022-10-31T09:05:11.183Z,88.06
2022-10-31T09:07:39.292Z,87.91
2022-10-31T09:10:08.034Z,87.76
2022-10-31T09:12:38.432Z,87.68
2022-10-31T09:15:24.862Z,88.18
2022-10-31T09:18:08.628Z,87.95
2022-10-31T09:20:47.336Z,88.37
2022-10-31T09:23:17.413Z,88.28
2022-10-31T09:25:50.190Z,88.15
2022-10-31T09:28:30.544Z,88.49
2022-10-31T09:31:02.578Z,88.09
2022-10-31T09:33:50.004Z,88.67
2022-10-31T09:36:40.733Z,88.51
2022-10-31T09:39:15.765Z,88.65
2022-10-31T09:42:02.170Z,88.38
2022-10-31T09:44:40.760Z,88.05
2022-10-31T09:47:19.013Z,88.17
2022-10-31T09:50:13.405Z,87.92
2022-10-31T09:52:45.835Z,87.71
2022-10-31T09:55:17.289Z,87.70
2022-10-31T09:57:46.436Z,87.68
2022-10-31T10:00:18.820Z,88.57
2022-10-31T10:02:50.029Z,89.10
2022-10-31T10:05:23.104Z,88.74
2022-10-31T10:07:57.595Z,88.36
2022-10-31T10:10:59.587Z,88.17
2022-10-31T10:13:59.836Z,88.04
2022-10-31T10:16:42.413Z,88.28
2022-10-31T10:19:22.366Z,88.20
2022-10-31T10:21:58.230Z,87.79
2022-10-31T10:24:40.224Z,88.21
2022-10-31T10:27:23.572Z,88.75
2022-10-31T10:29:53.531Z,88.52
2022-10-31T10:32:24.639Z,88.62
2022-10-31T10:34:54.711Z,88.31
2022-10-31T10:37:39.578Z,88.18
2022-10-31T10:40:10.719Z,88.10
2022-10-31T10:42:56.995Z,87.91
2022-10-31T10:45:42.299Z,87.74
2022-10-31T10:48:16.762Z,87.92
2022-10-31T10:50:49.717Z,88.42
2022-10-31T10:53:36.451Z,88.64
2022-10-31T10:56:14.226Z,88.38
2022-10-31T10:58:43.535Z,88.03
2022-10-31T11:04:37.804Z,87.74
2022-10-31T11:07:09.134Z,87.79
2022-10-31T11:09:39.368Z,87.89
2022-10-31T11:12:10.857Z,88.02
2022-10-31T11:14:46.175Z,87.73
2022-10-31T11:17:23.076Z,87.74
2022-10-31T11:20:02.084Z,87.32
2022-10-31T11:22:30.134Z,87.16
2022-10-31T11:24:59.546Z,87.16
2022-10-31T11:27:28.489Z,87.28
2022-10-31T11:30:07.037Z,87.38
2022-10-31T11:32:35.168Z,86.64
2022-10-31T11:35:04.704Z,86.50
2022-10-31T11:37:36.358Z,86.56
2022-10-31T11:40:08.036Z,86.88
2022-10-31T11:42:40.315Z,86.46
2022-10-31T11:45:16.719Z,86.12
2022-10-31T11:47:46.519Z,86.04
2022-10-31T11:50:21.218Z,85.67
2022-10-31T11:52:51.323Z,85.51
2022-10-31T11:55:33.637Z,85.50
2022-10-31T11:58:01.951Z,85.41
2022-10-31T12:00:31.984Z,84.88
2022-10-31T12:03:17.355Z,84.54
2022-10-31T12:05:46.574Z,84.60
2022-10-31T12:08:15.400Z,84.49
2022-10-31T12:10:52.556Z,84.38
2022-10-31T12:13:34.870Z,84.49
2022-10-31T12:16:07.111Z,84.52
2022-10-31T12:18:51.611Z,84.10
2022-10-31T12:21:28.698Z,83.71
2022-10-31T12:24:06.027Z,83.99
2022-10-31T12:26:42.760Z,83.73
2022-10-31T12:29:24.321Z,83.61
2022-10-31T12:32:01.729Z,83.30
2022-10-31T12:34:49.466Z,82.75
2022-10-31T12:37:26.434Z,82.80
2022-10-31T12:40:04.137Z,82.34
2022-10-31T12:42:46.058Z,82.09
2022-10-31T12:45:36.042Z,82.52
2022-10-31T12:48:16.641Z,82.16
2022-10-31T12:50:54.346Z,81.95
2022-10-31T12:53:32.361Z,82.14
2022-10-31T12:56:11.793Z,82.12
2022-10-31T12:58:46.076Z,81.89
2022-10-31T13:01:18.277Z,81.70
2022-10-31T13:03:50.832Z,81.77
2022-10-31T13:06:22.508Z,81.55
2022-10-31T13:08:53.386Z,81.11
2022-10-31T13:11:24.351Z,81.40
2022-10-31T13:13:59.571Z,81.29
2022-10-31T13:16:31.293Z,81.36
2022-10-31T13:19:04.874Z,81.33
2022-10-31T13:21:38.091Z,81.23
2022-10-31T13:24:10.723Z,81.09
2022-10-31T13:26:41.007Z,81.38
2022-10-31T13:29:19.356Z,81.15
2022-10-31T13:31:47.437Z,81.05
2022-10-31T13:34:24.206Z,81.03
2022-10-31T13:36:58.158Z,80.99
2022-10-31T13:39:34.377Z,80.97
2022-10-31T13:42:06.423Z,81.02
2022-10-31T13:44:38.726Z,81.14
2022-10-31T13:47:24.479Z,81.51
2022-10-31T13:49:55.636Z,82.09
2022-10-31T13:52:27.353Z,82.08
2022-10-31T13:54:59.018Z,82.02
2022-10-31T13:57:34.555Z,81.96
2022-10-31T14:00:08.856Z,82.05
2022-10-31T14:02:48.627Z,81.98
2022-10-31T14:05:24.524Z,81.75
2022-10-31T14:07:53.705Z,81.35
2022-10-31T14:10:24.982Z,81.58
2022-10-31T14:12:53.130Z,81.20
2022-10-31T14:15:23.726Z,81.48
2022-10-31T14:17:54.207Z,80.94
2022-10-31T14:20:37.115Z,80.91
2022-10-31T14:23:36.762Z,81.21
2022-10-31T14:26:37.714Z,81.62
2022-10-31T14:29:27.589Z,81.02
2022-10-31T14:31:59.539Z,80.45
2022-10-31T14:34:32.039Z,80.21
2022-10-31T14:37:23.571Z,80.59
2022-10-31T14:40:02.873Z,80.95
2022-10-31T14:42:42.308Z,80.12
2022-10-31T14:45:23.283Z,79.89
2022-10-31T14:48:07.042Z,79.72
2022-10-31T14:50:44.999Z,80.21
2022-10-31T14:53:17.018Z,80.06
2022-10-31T14:55:47.976Z,80.07
2022-10-31T14:58:21.442Z,86.19
2022-10-31T15:00:50.301Z,82.77
2022-10-31T15:03:25.920Z,80.23
2022-10-31T15:05:55.428Z,79.72
2022-10-31T15:08:55.941Z,79.65
2022-10-31T15:11:25.710Z,80.12
2022-10-31T15:13:55.029Z,79.24
2022-10-31T15:16:25.190Z,79.21
2022-10-31T15:18:59.147Z,78.97
2022-10-31T15:21:29.401Z,78.89
2022-10-31T15:23:58.995Z,78.95
2022-10-31T15:26:31.471Z,79.02
2022-10-31T15:29:01.225Z,78.88
2022-10-31T15:31:29.242Z,79.33
2022-10-31T15:34:01.927Z,79.24
2022-10-31T15:36:33.300Z,79.29
2022-10-31T15:39:04.047Z,79.34
2022-10-31T15:41:34.974Z,79.18
2022-10-31T15:44:06.744Z,79.58
2022-10-31T15:46:35.740Z,79.69
2022-10-31T15:49:05.234Z,79.60
2022-10-31T15:51:35.934Z,79.60
2022-10-31T15:54:04.183Z,79.52
2022-10-31T15:56:34.331Z,79.73
2022-10-31T15:59:03.474Z,79.63
2022-10-31T16:01:33.188Z,79.59
2022-10-31T16:04:06.340Z,79.58
2022-10-31T16:06:36.357Z,80.01
2022-10-31T16:09:05.555Z,79.92
2022-10-31T16:11:36.736Z,79.89
2022-10-31T16:14:08.419Z,80.26
2022-10-31T16:16:42.907Z,80.67
2022-10-31T16:19:18.961Z,81.01
2022-10-31T16:21:47.347Z,81.08
2022-10-31T16:24:19.256Z,81.27
2022-10-31T16:26:50.932Z,81.66
2022-10-31T16:29:28.049Z,81.63
2022-10-31T16:31:56.206Z,81.50
2022-10-31T16:34:27.095Z,82.31
2022-10-31T16:36:55.714Z,82.58
2022-10-31T16:39:23.915Z,82.19
2022-10-31T16:41:54.281Z,83.13
2022-10-31T16:44:24.713Z,83.01
2022-10-31T16:47:09.921Z,83.35
2022-10-31T16:49:39.343Z,83.33
2022-10-31T16:52:07.440Z,83.70
2022-10-31T16:54:35.644Z,83.26
2022-10-31T16:57:05.260Z,83.10
2022-10-31T16:59:34.249Z,83.49
2022-10-31T17:02:03.667Z,83.39
2022-10-31T17:04:31.953Z,83.40
2022-10-31T17:07:01.378Z,83.35
2022-10-31T17:09:29.368Z,83.37
2022-10-31T17:11:57.418Z,83.04
2022-10-31T17:14:25.507Z,82.90
2022-10-31T17:16:53.564Z,83.36
2022-10-31T17:19:21.599Z,83.75
2022-10-31T17:21:49.739Z,84.60
2022-10-31T17:24:19.138Z,84.62
2022-10-31T17:26:47.222Z,84.42
2022-10-31T17:29:15.272Z,85.08
2022-10-31T17:31:43.715Z,85.34
2022-10-31T17:34:11.780Z,85.43
2022-10-31T17:36:39.816Z,85.34
2022-10-31T17:39:09.676Z,85.70
2022-10-31T17:41:39.087Z,85.53
2022-10-31T17:44:07.515Z,85.34
2022-10-31T17:46:35.627Z,85.23
2022-10-31T17:49:05.125Z,85.12
2022-10-31T17:51:33.389Z,85.19
2022-10-31T17:54:01.669Z,85.38
2022-10-31T17:56:29.658Z,85.88
2022-10-31T17:58:59.295Z,85.20
2022-10-31T18:01:27.571Z,85.65
2022-10-31T18:03:55.725Z,85.59
2022-10-31T18:06:23.793Z,84.79
2022-10-31T18:08:51.837Z,85.30
2022-10-31T18:11:22.837Z,84.52
2022-10-31T18:13:56.057Z,85.31
2022-10-31T18:16:26.073Z,84.91
2022-10-31T18:18:56.196Z,84.94
2022-10-31T18:21:24.244Z,84.97
2022-10-31T18:23:55.202Z,84.67
2022-10-31T18:26:23.784Z,84.24
2022-10-31T18:28:52.215Z,84.09
2022-10-31T18:31:20.364Z,83.65
2022-10-31T18:36:23.255Z,83.72
2022-10-31T18:38:51.534Z,83.74
2022-10-31T18:41:19.817Z,83.25
2022-10-31T18:43:47.945Z,83.30
2022-10-31T18:46:17.269Z,82.73
2022-10-31T18:48:46.423Z,82.59
2022-10-31T18:51:18.321Z,82.66
2022-10-31T18:53:52.561Z,82.18
2022-10-31T18:56:20.975Z,82.56
2022-10-31T18:58:49.284Z,82.25
2022-10-31T19:01:18.453Z,82.27
2022-10-31T19:03:46.865Z,82.51
2022-10-31T19:06:16.285Z,83.23
2022-10-31T19:08:44.361Z,83.41
2022-10-31T19:11:14.344Z,83.80
2022-10-31T19:13:43.339Z,83.82
2022-10-31T19:16:13.050Z,84.21
2022-10-31T19:18:41.982Z,83.73
2022-10-31T19:21:11.745Z,83.59
2022-10-31T19:23:41.540Z,83.27
2022-10-31T19:26:09.996Z,83.60
2022-10-31T19:28:39.786Z,83.89
2022-10-31T19:31:08.492Z,83.72
2022-10-31T19:33:37.216Z,83.85
2022-10-31T19:36:08.292Z,84.11
2022-10-31T19:38:36.827Z,84.02
2022-10-31T19:41:07.560Z,85.63
2022-10-31T19:43:35.688Z,87.13
2022-10-31T19:46:04.739Z,87.11
2022-10-31T19:48:32.854Z,87.06
2022-10-31T19:51:04.919Z,86.94
2022-10-31T19:53:33.274Z,87.32
